createdAt,value
2023-05-21T00:00:28.784Z,12.23
2023-05-21T00:02:55.885Z,12.13
2023-05-21T00:05:22.664Z,12.22
2023-05-21T00:07:49.441Z,12.25
2023-05-21T00:10:16.161Z,12.26
2023-05-21T00:12:42.941Z,12.50
2023-05-21T00:15:10.195Z,12.25
2023-05-21T00:17:37.289Z,12.34
2023-05-21T00:20:08.849Z,12.38
2023-05-21T00:22:42.772Z,12.34
2023-05-21T00:25:11.105Z,12.32
2023-05-21T00:27:38.214Z,12.38
2023-05-21T00:30:05.651Z,12.30
2023-05-21T00:32:32.518Z,12.13
2023-05-21T00:34:59.309Z,12.28
2023-05-21T00:37:26.113Z,12.34
2023-05-21T00:39:52.813Z,12.38
2023-05-21T00:42:19.472Z,12.13
2023-05-21T00:44:46.371Z,12.21
2023-05-21T00:47:14.263Z,12.16
2023-05-21T00:49:41.590Z,12.24
2023-05-21T00:52:08.509Z,12.11
2023-05-21T00:54:35.444Z,12.30
2023-05-21T00:57:04.061Z,11.98
2023-05-21T00:59:31.483Z,11.98
2023-05-21T01:02:04.151Z,12.14
2023-05-21T01:04:32.197Z,12.12
2023-05-21T01:06:59.000Z,12.08
2023-05-21T01:09:26.929Z,11.99
2023-05-21T01:11:55.779Z,11.98
2023-05-21T01:14:24.291Z,12.14
2023-05-21T01:16:52.800Z,11.85
2023-05-21T01:19:24.586Z,11.82
2023-05-21T01:22:00.586Z,11.91
2023-05-21T01:24:27.401Z,11.89
2023-05-21T01:26:54.140Z,11.88
2023-05-21T01:29:25.028Z,11.82
2023-05-21T01:32:24.300Z,11.84
2023-05-21T01:34:59.876Z,11.84
2023-05-21T01:37:45.928Z,11.73
2023-05-21T01:40:34.406Z,11.77
2023-05-21T01:43:03.513Z,11.99
2023-05-21T01:45:32.267Z,11.89
2023-05-21T01:47:59.422Z,11.89
2023-05-21T01:50:27.027Z,11.86
2023-05-21T01:53:00.962Z,12.11
2023-05-21T01:55:28.165Z,12.01
2023-05-21T01:57:55.969Z,12.02
2023-05-21T02:00:25.479Z,12.02
2023-05-21T02:02:52.337Z,11.91
2023-05-21T02:05:19.104Z,11.92
2023-05-21T02:07:46.357Z,12.04
2023-05-21T02:10:13.339Z,11.89
2023-05-21T02:12:40.066Z,11.85
2023-05-21T02:15:07.377Z,11.92
2023-05-21T02:17:34.674Z,11.91
2023-05-21T02:20:11.517Z,11.88
2023-05-21T02:22:44.530Z,11.85
2023-05-21T02:25:13.002Z,11.71
2023-05-21T02:27:40.678Z,11.78
2023-05-21T02:30:09.252Z,11.73
2023-05-21T02:32:36.121Z,11.77
2023-05-21T02:35:04.147Z,11.67
2023-05-21T02:37:34.662Z,11.61
2023-05-21T02:40:04.273Z,11.58
2023-05-21T02:42:31.069Z,11.63
2023-05-21T02:44:58.037Z,11.62
2023-05-21T02:47:25.533Z,11.79
2023-05-21T02:49:53.500Z,11.71
2023-05-21T02:52:23.941Z,11.80
2023-05-21T02:54:51.604Z,11.83
2023-05-21T02:57:19.861Z,11.86
2023-05-21T02:59:46.573Z,11.74
2023-05-21T03:02:13.288Z,11.74
2023-05-21T03:04:46.224Z,11.82
2023-05-21T03:07:15.846Z,11.80
2023-05-21T03:09:42.678Z,11.78
2023-05-21T03:12:10.451Z,11.79
2023-05-21T03:14:40.249Z,11.78
2023-05-21T03:17:07.755Z,11.82
2023-05-21T03:19:36.036Z,11.84
2023-05-21T03:22:03.913Z,11.84
2023-05-21T03:24:31.860Z,11.98
2023-05-21T03:27:01.061Z,11.96
2023-05-21T03:29:28.518Z,11.98
2023-05-21T03:31:56.172Z,11.95
2023-05-21T03:34:23.331Z,12.06
2023-05-21T03:36:50.625Z,12.03
2023-05-21T03:39:17.558Z,12.06
2023-05-21T03:41:48.610Z,12.08
2023-05-21T03:44:15.404Z,12.02
2023-05-21T03:46:42.561Z,12.34
2023-05-21T03:49:09.322Z,12.21
2023-05-21T03:51:36.053Z,12.32
2023-05-21T03:54:04.997Z,12.38
2023-05-21T03:56:31.726Z,12.38
2023-05-21T03:59:01.442Z,12.34
2023-05-21T04:01:28.463Z,12.48
2023-05-21T04:03:55.514Z,12.33
2023-05-21T04:06:22.854Z,12.37
2023-05-21T04:08:49.934Z,12.30
2023-05-21T04:11:18.775Z,12.15
2023-05-21T04:13:46.176Z,12.49
2023-05-21T04:16:14.675Z,12.64
2023-05-21T04:18:44.151Z,13.12
2023-05-21T04:21:12.519Z,13.45
2023-05-21T04:23:39.620Z,13.85
2023-05-21T04:26:07.690Z,14.02
2023-05-21T04:28:35.412Z,13.57
2023-05-21T04:31:02.252Z,13.30
2023-05-21T04:33:31.442Z,13.21
2023-05-21T04:35:58.341Z,13.11
2023-05-21T04:38:27.940Z,13.08
2023-05-21T04:40:55.716Z,13.23
2023-05-21T04:43:25.831Z,13.27
2023-05-21T04:45:54.982Z,13.14
2023-05-21T04:48:27.079Z,13.14
2023-05-21T04:50:55.796Z,13.30
2023-05-21T04:53:23.740Z,13.37
2023-05-21T04:55:50.463Z,13.46
2023-05-21T04:58:20.139Z,13.53
2023-05-21T05:00:47.218Z,13.59
2023-05-21T05:03:14.537Z,13.66
2023-05-21T05:05:41.985Z,13.62
2023-05-21T05:08:08.814Z,13.52
2023-05-21T05:10:37.984Z,13.67
2023-05-21T05:13:04.641Z,13.81
2023-05-21T05:15:31.703Z,13.90
2023-05-21T05:17:58.440Z,13.91
2023-05-21T05:20:25.402Z,13.90
2023-05-21T05:22:52.039Z,13.86
2023-05-21T05:25:18.847Z,13.82
2023-05-21T05:27:45.589Z,13.57
2023-05-21T05:30:12.459Z,13.80
2023-05-21T05:32:39.168Z,13.77
2023-05-21T05:35:06.937Z,13.92
2023-05-21T05:37:33.701Z,13.90
2023-05-21T05:40:00.555Z,13.83
2023-05-21T05:42:27.357Z,13.99
2023-05-21T05:44:54.065Z,13.96
2023-05-21T05:47:23.350Z,14.14
2023-05-21T05:49:50.276Z,14.32
2023-05-21T05:52:17.041Z,14.26
2023-05-21T05:54:43.736Z,14.29
2023-05-21T05:57:10.595Z,14.53
2023-05-21T05:59:37.320Z,14.36
2023-05-21T06:02:04.078Z,14.22
2023-05-21T06:04:31.022Z,14.30
2023-05-21T06:06:57.956Z,14.26
2023-05-21T06:09:25.059Z,14.30
2023-05-21T06:11:52.088Z,14.54
2023-05-21T06:14:18.858Z,14.66
2023-05-21T06:16:45.647Z,14.78
2023-05-21T06:19:12.413Z,14.82
2023-05-21T06:21:39.169Z,14.76
2023-05-21T06:24:07.186Z,14.75
2023-05-21T06:26:37.664Z,14.97
2023-05-21T06:29:04.467Z,14.92
2023-05-21T06:31:32.853Z,15.02
2023-05-21T06:34:00.582Z,15.21
2023-05-21T06:36:29.965Z,15.18
2023-05-21T06:38:59.582Z,15.35
2023-05-21T06:41:26.533Z,15.31
2023-05-21T06:43:53.234Z,15.28
2023-05-21T06:46:20.036Z,15.28
2023-05-21T06:48:46.785Z,15.19
2023-05-21T06:51:13.715Z,15.54
2023-05-21T06:53:40.571Z,15.47
2023-05-21T06:56:07.656Z,15.34
2023-05-21T06:58:34.328Z,15.52
2023-05-21T07:01:01.764Z,15.73
2023-05-21T07:03:30.783Z,15.77
2023-05-21T07:05:58.018Z,15.85
2023-05-21T07:08:24.930Z,15.69
2023-05-21T07:10:51.608Z,15.73
2023-05-21T07:13:18.435Z,15.80
2023-05-21T07:15:45.197Z,15.92
2023-05-21T07:18:12.185Z,15.90
2023-05-21T07:20:39.050Z,15.88
2023-05-21T07:23:05.889Z,16.04
2023-05-21T07:25:32.676Z,16.17
2023-05-21T07:27:59.358Z,16.07
2023-05-21T07:30:26.301Z,16.18
2023-05-21T07:32:53.091Z,16.29
2023-05-21T07:35:19.961Z,16.48
2023-05-21T07:37:47.851Z,16.68
2023-05-21T07:40:14.786Z,16.60
2023-05-21T07:42:41.628Z,16.61
2023-05-21T07:45:08.702Z,16.76
2023-05-21T07:47:35.566Z,16.60
2023-05-21T07:50:02.286Z,16.78
2023-05-21T07:52:29.191Z,16.95
2023-05-21T07:54:55.922Z,17.02
2023-05-21T07:57:23.347Z,17.02
2023-05-21T07:59:51.168Z,17.19
2023-05-21T08:02:17.896Z,17.10
2023-05-21T08:04:44.689Z,17.09
2023-05-21T08:07:12.958Z,17.22
2023-05-21T08:09:39.689Z,16.75
2023-05-21T08:12:06.968Z,17.19
2023-05-21T08:14:33.674Z,17.48
2023-05-21T08:17:00.672Z,17.76
2023-05-21T08:19:27.422Z,17.85
2023-05-21T08:21:54.263Z,18.03
2023-05-21T08:24:21.195Z,17.91
2023-05-21T08:26:50.610Z,18.11
2023-05-21T08:29:17.534Z,17.98
2023-05-21T08:31:44.251Z,18.11
2023-05-21T08:34:12.366Z,18.11
2023-05-21T08:36:39.119Z,18.03
2023-05-21T08:39:06.094Z,17.94
2023-05-21T08:41:35.622Z,17.81
2023-05-21T08:44:02.837Z,17.78
2023-05-21T08:46:34.639Z,17.76
2023-05-21T08:49:03.399Z,17.90
2023-05-21T08:51:31.404Z,17.82
2023-05-21T08:54:01.682Z,17.92
2023-05-21T08:56:31.444Z,18.08
2023-05-21T08:58:59.627Z,17.93
2023-05-21T09:01:27.057Z,18.00
2023-05-21T09:04:16.259Z,18.14
2023-05-21T09:06:47.940Z,18.60
2023-05-21T09:09:34.900Z,18.69
2023-05-21T09:12:01.749Z,18.63
2023-05-21T09:14:29.228Z,18.80
2023-05-21T09:16:56.056Z,18.84
2023-05-21T09:19:23.057Z,18.80
2023-05-21T09:21:53.230Z,18.82
2023-05-21T09:24:25.187Z,18.63
2023-05-21T09:26:52.548Z,18.84
2023-05-21T09:29:19.416Z,18.82
2023-05-21T09:31:46.288Z,18.69
2023-05-21T09:34:14.286Z,18.67
2023-05-21T09:36:41.047Z,18.46
2023-05-21T09:39:08.608Z,18.42
2023-05-21T09:41:36.263Z,18.26
2023-05-21T09:44:03.750Z,18.30
2023-05-21T09:46:41.467Z,18.49
2023-05-21T09:49:24.803Z,18.41
2023-05-21T09:51:56.043Z,18.47
2023-05-21T09:54:24.252Z,18.43
2023-05-21T09:56:54.014Z,18.52
2023-05-21T09:59:21.140Z,18.76
2023-05-21T10:01:52.617Z,18.82
2023-05-21T10:04:23.202Z,19.19
2023-05-21T10:06:50.978Z,19.45
2023-05-21T10:09:19.403Z,19.25
2023-05-21T10:11:48.807Z,19.36
2023-05-21T10:14:22.871Z,19.12
2023-05-21T10:16:52.757Z,18.96
2023-05-21T10:19:20.327Z,19.10
2023-05-21T10:21:47.971Z,19.14
2023-05-21T10:24:15.763Z,19.25
2023-05-21T10:26:51.238Z,19.52
2023-05-21T10:29:19.893Z,19.87
2023-05-21T10:31:49.928Z,19.71
2023-05-21T10:34:17.620Z,19.33
2023-05-21T10:36:46.056Z,19.57
2023-05-21T10:39:13.509Z,19.51
2023-05-21T10:42:12.508Z,20.01
2023-05-21T10:45:00.531Z,20.16
2023-05-21T10:48:03.485Z,19.82
2023-05-21T10:51:08.224Z,20.13
2023-05-21T10:53:51.248Z,20.50
2023-05-21T10:56:29.375Z,20.21
2023-05-21T10:59:12.836Z,20.28
2023-05-21T11:01:45.199Z,20.53
2023-05-21T11:04:12.410Z,20.53
2023-05-21T11:06:39.140Z,20.55
2023-05-21T11:09:16.337Z,20.61
2023-05-21T11:11:51.315Z,20.62
2023-05-21T11:14:39.332Z,20.34
2023-05-21T11:17:09.257Z,20.25
2023-05-21T11:19:38.431Z,20.49
2023-05-21T11:22:26.795Z,20.40
2023-05-21T11:24:55.192Z,20.49
2023-05-21T11:27:42.124Z,20.51
2023-05-21T11:30:14.529Z,20.54
2023-05-21T11:33:11.329Z,20.63
2023-05-21T11:35:50.413Z,20.95
2023-05-21T11:38:18.241Z,20.95
2023-05-21T11:40:54.917Z,20.80
2023-05-21T11:43:21.979Z,21.10
2023-05-21T11:45:48.919Z,20.82
2023-05-21T11:48:16.213Z,21.41
2023-05-21T11:50:43.014Z,21.69
2023-05-21T11:53:12.220Z,21.80
2023-05-21T11:55:43.524Z,21.72
2023-05-21T11:58:13.739Z,21.38
2023-05-21T12:00:40.878Z,21.23
2023-05-21T12:03:08.523Z,21.52
2023-05-21T12:05:49.236Z,21.83
2023-05-21T12:08:25.834Z,21.90
2023-05-21T12:11:00.194Z,22.05
2023-05-21T12:13:27.848Z,21.77
2023-05-21T12:15:54.847Z,22.00
2023-05-21T12:18:21.908Z,22.76
2023-05-21T12:20:51.999Z,22.50
2023-05-21T12:23:25.908Z,22.80
2023-05-21T12:25:53.788Z,23.01
2023-05-21T12:28:22.090Z,22.98
2023-05-21T12:30:48.863Z,22.91
2023-05-21T12:33:17.955Z,23.16
2023-05-21T12:35:50.058Z,23.01
2023-05-21T12:38:17.133Z,23.10
2023-05-21T12:40:45.660Z,23.29
2023-05-21T12:43:12.637Z,23.20
2023-05-21T12:45:39.710Z,23.19
2023-05-21T12:48:08.147Z,23.69
2023-05-21T12:50:38.782Z,23.74
2023-05-21T12:53:09.492Z,23.41
2023-05-21T12:55:36.235Z,23.15
2023-05-21T12:58:09.178Z,23.10
2023-05-21T13:00:36.641Z,22.64
2023-05-21T13:03:06.232Z,22.45
2023-05-21T13:05:33.360Z,22.38
2023-05-21T13:08:00.120Z,22.76
2023-05-21T13:10:26.833Z,22.87
2023-05-21T13:12:53.588Z,22.85
2023-05-21T13:15:20.488Z,23.05
2023-05-21T13:17:49.737Z,23.34
2023-05-21T13:20:26.310Z,23.49
2023-05-21T13:22:54.023Z,23.46
2023-05-21T13:25:28.811Z,23.41
2023-05-21T13:27:56.164Z,23.48
2023-05-21T13:30:22.840Z,23.34
2023-05-21T13:32:50.050Z,23.13
2023-05-21T13:35:17.363Z,23.01
2023-05-21T13:37:45.031Z,23.17
2023-05-21T13:40:18.436Z,23.55
2023-05-21T13:42:47.215Z,23.53
2023-05-21T13:45:16.665Z,23.29
2023-05-21T13:47:44.528Z,23.22
2023-05-21T13:50:12.044Z,23.33
2023-05-21T13:52:39.072Z,23.30
2023-05-21T13:55:06.535Z,23.31
2023-05-21T13:57:33.496Z,23.20
2023-05-21T14:00:01.119Z,23.15
2023-05-21T14:02:28.272Z,23.63
2023-05-21T14:04:55.100Z,23.64
2023-05-21T14:07:22.303Z,23.59
2023-05-21T14:09:49.191Z,23.50
2023-05-21T14:12:16.975Z,23.68
2023-05-21T14:14:44.160Z,23.33
2023-05-21T14:17:11.145Z,23.49
2023-05-21T14:19:37.916Z,23.69
2023-05-21T14:22:04.815Z,23.42
2023-05-21T14:24:31.500Z,23.58
2023-05-21T14:26:58.411Z,23.49
2023-05-21T14:29:25.144Z,23.64
2023-05-21T14:31:51.877Z,23.32
2023-05-21T14:34:18.592Z,23.29
2023-05-21T14:36:45.248Z,23.49
2023-05-21T14:39:12.026Z,23.32
2023-05-21T14:41:39.437Z,23.51
2023-05-21T14:44:06.174Z,23.39
2023-05-21T14:46:33.069Z,23.08
2023-05-21T14:49:03.792Z,23.11
2023-05-21T14:51:31.571Z,22.89
2023-05-21T14:53:58.704Z,22.92
2023-05-21T14:56:28.331Z,23.06
2023-05-21T14:58:55.483Z,22.75
2023-05-21T15:01:22.340Z,22.49
2023-05-21T15:03:49.378Z,22.48
2023-05-21T15:06:18.608Z,22.59
2023-05-21T15:08:45.405Z,22.73
2023-05-21T15:11:12.068Z,22.58
2023-05-21T15:13:39.136Z,22.41
2023-05-21T15:16:06.248Z,22.63
2023-05-21T15:18:33.452Z,22.30
2023-05-21T15:21:00.938Z,22.25
2023-05-21T15:23:27.821Z,22.20
2023-05-21T15:25:54.573Z,22.08
2023-05-21T15:28:22.941Z,22.02
2023-05-21T15:30:49.940Z,22.05
2023-05-21T15:33:16.724Z,22.01
2023-05-21T15:35:43.841Z,21.71
2023-05-21T15:38:11.069Z,21.66
2023-05-21T15:40:41.249Z,21.44
2023-05-21T15:43:08.161Z,21.45
2023-05-21T15:45:35.176Z,21.18
2023-05-21T15:48:02.079Z,21.09
2023-05-21T15:50:28.812Z,21.07
2023-05-21T15:52:56.364Z,21.09
2023-05-21T15:55:23.246Z,20.99
2023-05-21T15:57:49.945Z,20.87
2023-05-21T16:00:16.705Z,20.72
2023-05-21T16:02:43.674Z,20.93
2023-05-21T16:05:10.550Z,20.88
2023-05-21T16:07:38.435Z,20.57
2023-05-21T16:10:08.221Z,20.49
2023-05-21T16:12:34.913Z,20.43
2023-05-21T16:15:01.633Z,20.64
2023-05-21T16:17:28.387Z,20.42
2023-05-21T16:19:55.101Z,20.48
2023-05-21T16:22:23.222Z,20.38
2023-05-21T16:24:50.032Z,20.30
2023-05-21T16:27:16.806Z,20.37
2023-05-21T16:29:43.550Z,20.22
2023-05-21T16:32:14.054Z,20.28
2023-05-21T16:34:41.165Z,20.23
2023-05-21T16:37:11.332Z,20.10
2023-05-21T16:39:38.294Z,20.17
2023-05-21T16:42:05.168Z,20.06
2023-05-21T16:44:32.278Z,20.13
2023-05-21T16:46:59.621Z,20.08
2023-05-21T16:49:27.346Z,19.95
2023-05-21T16:51:54.026Z,19.83
2023-05-21T16:54:21.111Z,19.89
2023-05-21T16:56:47.794Z,19.81
2023-05-21T16:59:14.509Z,19.74
2023-05-21T17:01:42.740Z,19.70
2023-05-21T17:04:09.681Z,19.47
2023-05-21T17:06:36.458Z,19.51
2023-05-21T17:09:03.935Z,19.44
2023-05-21T17:11:31.084Z,19.43
2023-05-21T17:13:57.885Z,19.48
2023-05-21T17:16:25.084Z,19.40
2023-05-21T17:18:52.090Z,19.26
2023-05-21T17:21:19.431Z,19.20
2023-05-21T17:23:46.791Z,19.24
2023-05-21T17:26:13.974Z,19.13
2023-05-21T17:28:40.886Z,19.20
2023-05-21T17:31:08.994Z,19.13
2023-05-21T17:33:37.501Z,19.09
2023-05-21T17:36:04.571Z,18.89
2023-05-21T17:38:31.301Z,19.01
2023-05-21T17:40:59.024Z,18.88
2023-05-21T17:43:27.568Z,18.83
2023-05-21T17:45:54.296Z,18.74
2023-05-21T17:48:21.266Z,18.77
2023-05-21T17:50:48.056Z,18.83
2023-05-21T17:53:15.500Z,18.75
2023-05-21T17:55:42.218Z,18.76
2023-05-21T17:58:10.004Z,18.82
2023-05-21T18:00:36.848Z,18.83
2023-05-21T18:03:03.986Z,18.71
2023-05-21T18:05:30.788Z,18.73
2023-05-21T18:07:57.519Z,18.67
2023-05-21T18:10:24.309Z,18.65
2023-05-21T18:12:51.030Z,18.65
2023-05-21T18:15:17.733Z,18.51
2023-05-21T18:17:44.555Z,18.60
2023-05-21T18:20:12.114Z,18.69
2023-05-21T18:22:38.836Z,18.59
2023-05-21T18:25:06.134Z,18.74
2023-05-21T18:27:32.768Z,18.63
2023-05-21T18:30:02.466Z,18.75
2023-05-21T18:32:29.543Z,18.67
2023-05-21T18:34:58.030Z,18.69
2023-05-21T18:37:25.791Z,18.49
2023-05-21T18:39:52.559Z,18.30
2023-05-21T18:42:19.240Z,18.56
2023-05-21T18:44:46.513Z,18.47
2023-05-21T18:47:13.778Z,18.37
2023-05-21T18:49:40.463Z,18.40
2023-05-21T18:52:07.669Z,18.23
2023-05-21T18:54:34.463Z,18.53
2023-05-21T18:57:01.254Z,18.23
2023-05-21T18:59:31.451Z,18.12
2023-05-21T19:01:58.245Z,18.37
2023-05-21T19:04:25.053Z,18.23
2023-05-21T19:06:51.889Z,18.04
2023-05-21T19:09:18.569Z,17.93
2023-05-21T19:11:45.512Z,18.10
2023-05-21T19:14:12.181Z,18.13
2023-05-21T19:16:38.934Z,18.26
2023-05-21T19:19:06.085Z,18.15
2023-05-21T19:21:33.133Z,18.17
2023-05-21T19:23:59.876Z,17.81
2023-05-21T19:26:26.729Z,17.88
2023-05-21T19:28:54.635Z,17.77
2023-05-21T19:31:22.950Z,17.72
2023-05-21T19:33:50.007Z,17.78
2023-05-21T19:36:16.961Z,17.77
2023-05-21T19:38:50.712Z,17.78
2023-05-21T19:41:18.571Z,17.80
2023-05-21T19:43:45.941Z,17.68
2023-05-21T19:46:13.231Z,17.61
2023-05-21T19:48:40.068Z,17.51
2023-05-21T19:51:06.800Z,17.61
2023-05-21T19:53:34.804Z,17.58
2023-05-21T19:56:01.487Z,17.69
2023-05-21T19:58:30.373Z,17.52
2023-05-21T20:00:59.248Z,17.48
2023-05-21T20:03:27.157Z,17.43
2023-05-21T20:05:54.524Z,17.54
2023-05-21T20:08:21.401Z,17.48
2023-05-21T20:10:51.446Z,17.52
2023-05-21T20:13:19.244Z,17.45
2023-05-21T20:15:47.901Z,17.23
2023-05-21T20:18:15.502Z,17.49
2023-05-21T20:20:43.154Z,17.54
2023-05-21T20:23:09.846Z,17.45
2023-05-21T20:25:36.570Z,17.36
2023-05-21T20:28:04.113Z,17.26
2023-05-21T20:30:51.364Z,17.34
2023-05-21T20:33:18.350Z,17.28
2023-05-21T20:35:44.997Z,17.27
2023-05-21T20:38:12.638Z,17.13
2023-05-21T20:40:39.613Z,17.29
2023-05-21T20:43:06.972Z,17.13
2023-05-21T20:45:36.141Z,16.99
2023-05-21T20:48:03.478Z,16.95
2023-05-21T20:50:30.285Z,16.87
2023-05-21T20:52:58.420Z,16.94
2023-05-21T20:55:25.066Z,16.96
2023-05-21T20:57:51.865Z,16.79
2023-05-21T21:00:19.089Z,16.81
2023-05-21T21:02:46.108Z,16.65
2023-05-21T21:05:12.884Z,16.70
2023-05-21T21:07:40.095Z,16.77
2023-05-21T21:10:07.256Z,16.55
2023-05-21T21:12:33.937Z,16.72
2023-05-21T21:15:00.665Z,16.65
2023-05-21T21:17:27.414Z,16.54
2023-05-21T21:19:54.122Z,16.52
2023-05-21T21:22:21.018Z,16.70
2023-05-21T21:24:47.983Z,16.91
2023-05-21T21:27:14.831Z,16.68
2023-05-21T21:29:41.551Z,16.69
2023-05-21T21:32:08.396Z,16.70
2023-05-21T21:34:35.301Z,16.62
2023-05-21T21:37:02.046Z,16.68
2023-05-21T21:39:31.359Z,16.90
2023-05-21T21:41:58.146Z,16.87
2023-05-21T21:44:24.913Z,16.68
2023-05-21T21:46:51.606Z,16.79
2023-05-21T21:49:18.329Z,16.67
2023-05-21T21:51:45.150Z,16.68
2023-05-21T21:54:12.203Z,16.56
2023-05-21T21:56:39.059Z,16.77
2023-05-21T21:59:05.941Z,16.59
2023-05-21T22:01:33.140Z,16.45
2023-05-21T22:03:59.885Z,16.46
2023-05-21T22:06:27.666Z,16.48
2023-05-21T22:08:54.680Z,16.45
2023-05-21T22:11:21.969Z,16.39
2023-05-21T22:13:49.032Z,16.40
2023-05-21T22:16:15.918Z,16.48
2023-05-21T22:18:42.750Z,16.42
2023-05-21T22:21:10.917Z,16.42
2023-05-21T22:23:38.767Z,16.44
2023-05-21T22:26:06.326Z,16.47
2023-05-21T22:28:33.113Z,16.40
2023-05-21T22:30:59.923Z,16.39
2023-05-21T22:33:26.925Z,16.49
2023-05-21T22:35:54.561Z,16.44
2023-05-21T22:38:22.084Z,16.47
2023-05-21T22:40:48.919Z,16.23
2023-05-21T22:43:15.742Z,16.27
2023-05-21T22:45:44.288Z,16.19
2023-05-21T22:48:11.085Z,16.03
2023-05-21T22:50:39.150Z,15.95
2023-05-21T22:53:06.903Z,16.10
2023-05-21T22:55:33.592Z,16.02
2023-05-21T22:58:00.337Z,15.92
2023-05-21T23:00:27.441Z,15.84
2023-05-21T23:02:54.752Z,15.92
2023-05-21T23:05:22.218Z,15.91
2023-05-21T23:07:49.179Z,15.81
2023-05-21T23:10:15.969Z,15.72
2023-05-21T23:12:42.699Z,15.72
2023-05-21T23:15:10.749Z,15.81
2023-05-21T23:17:38.969Z,15.87
2023-05-21T23:20:07.416Z,15.93
2023-05-21T23:22:34.850Z,15.78
2023-05-21T23:25:02.012Z,15.76
2023-05-21T23:27:29.283Z,15.84
2023-05-21T23:29:56.433Z,15.82
2023-05-21T23:32:23.665Z,15.74
2023-05-21T23:34:50.779Z,15.75
2023-05-21T23:37:17.661Z,15.96
2023-05-21T23:39:48.212Z,15.87
2023-05-21T23:42:18.482Z,15.66
2023-05-21T23:44:45.268Z,15.83
2023-05-21T23:47:12.185Z,15.86
2023-05-21T23:49:39.511Z,15.66
2023-05-21T23:52:06.716Z,15.60
2023-05-21T23:54:33.521Z,15.47
2023-05-21T23:57:00.207Z,15.44
2023-05-21T23:59:27.081Z,15.29
